sensor_id;sensor_type;location;lat;lon;timestamp;P1;durP1;ratioP1;P2;durP2;ratioP2
83022;SDS011;72838;51.820;4.260;2023-11-19T00:01:34;71.07;;;6.78;;
83022;SDS011;72838;51.820;4.260;2023-11-19T00:03:59;71.40;;;7.07;;
83022;SDS011;72838;51.820;4.260;2023-11-19T00:06:25;71.68;;;6.60;;
83022;SDS011;72838;51.820;4.260;2023-11-19T00:08:50;72.18;;;7.78;;
83022;SDS011;72838;51.820;4.260;2023-11-19T00:11:16;65.93;;;8.77;;
83022;SDS011;72838;51.820;4.260;2023-11-19T00:13:41;84.13;;;10.02;;
83022;SDS011;72838;51.820;4.260;2023-11-19T00:16:07;69.47;;;7.88;;
83022;SDS011;72838;51.820;4.260;2023-11-19T00:18:34;69.18;;;7.80;;
83022;SDS011;72838;51.820;4.260;2023-11-19T00:21:00;88.13;;;9.38;;
83022;SDS011;72838;51.820;4.260;2023-11-19T00:23:38;100.22;;;11.75;;
83022;SDS011;72838;51.820;4.260;2023-11-19T00:26:22;83.20;;;7.00;;
83022;SDS011;72838;51.820;4.260;2023-11-19T00:28:47;92.03;;;10.38;;
83022;SDS011;72838;51.820;4.260;2023-11-19T00:31:13;121.72;;;13.32;;
83022;SDS011;72838;51.820;4.260;2023-11-19T00:33:39;108.50;;;12.02;;
83022;SDS011;72838;51.820;4.260;2023-11-19T00:36:05;94.43;;;10.45;;
83022;SDS011;72838;51.820;4.260;2023-11-19T00:38:30;122.53;;;12.60;;
83022;SDS011;72838;51.820;4.260;2023-11-19T00:40:56;140.55;;;16.67;;
83022;SDS011;72838;51.820;4.260;2023-11-19T00:43:21;86.55;;;9.27;;
83022;SDS011;72838;51.820;4.260;2023-11-19T00:45:47;88.50;;;8.63;;
83022;SDS011;72838;51.820;4.260;2023-11-19T00:48:15;89.43;;;8.68;;
83022;SDS011;72838;51.820;4.260;2023-11-19T00:50:41;67.82;;;7.32;;
83022;SDS011;72838;51.820;4.260;2023-11-19T00:53:15;95.00;;;9.52;;
83022;SDS011;72838;51.820;4.260;2023-11-19T00:55:40;95.32;;;9.40;;
83022;SDS011;72838;51.820;4.260;2023-11-19T00:58:14;114.32;;;9.15;;
83022;SDS011;72838;51.820;4.260;2023-11-19T01:00:40;96.93;;;9.35;;
83022;SDS011;72838;51.820;4.260;2023-11-19T01:03:05;105.75;;;9.57;;
83022;SDS011;72838;51.820;4.260;2023-11-19T01:05:32;103.32;;;9.40;;
83022;SDS011;72838;51.820;4.260;2023-11-19T01:07:58;112.10;;;8.80;;
83022;SDS011;72838;51.820;4.260;2023-11-19T01:10:34;115.82;;;10.38;;
83022;SDS011;72838;51.820;4.260;2023-11-19T01:13:01;103.55;;;9.55;;
83022;SDS011;72838;51.820;4.260;2023-11-19T01:15:43;113.15;;;10.18;;
83022;SDS011;72838;51.820;4.260;2023-11-19T01:18:44;113.50;;;8.75;;
83022;SDS011;72838;51.820;4.260;2023-11-19T01:21:18;110.60;;;9.75;;
83022;SDS011;72838;51.820;4.260;2023-11-19T01:27:42;121.82;;;10.80;;
83022;SDS011;72838;51.820;4.260;2023-11-19T01:30:07;104.90;;;9.57;;
83022;SDS011;72838;51.820;4.260;2023-11-19T01:32:47;127.55;;;11.20;;
83022;SDS011;72838;51.820;4.260;2023-11-19T01:35:23;105.40;;;10.23;;
83022;SDS011;72838;51.820;4.260;2023-11-19T01:37:48;114.43;;;10.13;;
83022;SDS011;72838;51.820;4.260;2023-11-19T01:40:19;90.93;;;8.98;;
83022;SDS011;72838;51.820;4.260;2023-11-19T01:42:45;102.40;;;9.50;;
83022;SDS011;72838;51.820;4.260;2023-11-19T01:45:10;112.70;;;10.45;;
83022;SDS011;72838;51.820;4.260;2023-11-19T01:47:58;86.78;;;8.70;;
83022;SDS011;72838;51.820;4.260;2023-11-19T01:50:39;94.90;;;8.02;;
83022;SDS011;72838;51.820;4.260;2023-11-19T01:53:07;109.40;;;9.77;;
83022;SDS011;72838;51.820;4.260;2023-11-19T01:55:33;105.10;;;8.50;;
83022;SDS011;72838;51.820;4.260;2023-11-19T01:57:59;120.28;;;9.50;;
83022;SDS011;72838;51.820;4.260;2023-11-19T02:00:34;99.50;;;8.25;;
83022;SDS011;72838;51.820;4.260;2023-11-19T02:03:19;110.25;;;10.35;;
83022;SDS011;72838;51.820;4.260;2023-11-19T02:05:58;113.05;;;10.82;;
83022;SDS011;72838;51.820;4.260;2023-11-19T02:08:27;100.00;;;9.65;;
83022;SDS011;72838;51.820;4.260;2023-11-19T02:10:54;100.18;;;8.13;;
83022;SDS011;72838;51.820;4.260;2023-11-19T02:13:25;119.88;;;10.02;;
83022;SDS011;72838;51.820;4.260;2023-11-19T02:15:57;98.95;;;9.15;;
83022;SDS011;72838;51.820;4.260;2023-11-19T02:18:27;101.40;;;8.38;;
83022;SDS011;72838;51.820;4.260;2023-11-19T02:20:53;120.80;;;10.18;;
83022;SDS011;72838;51.820;4.260;2023-11-19T02:23:20;122.60;;;9.85;;
83022;SDS011;72838;51.820;4.260;2023-11-19T02:28:28;106.78;;;9.07;;
83022;SDS011;72838;51.820;4.260;2023-11-19T02:30:54;114.15;;;9.95;;
83022;SDS011;72838;51.820;4.260;2023-11-19T02:33:19;126.60;;;10.25;;
83022;SDS011;72838;51.820;4.260;2023-11-19T02:35:44;110.47;;;9.50;;
83022;SDS011;72838;51.820;4.260;2023-11-19T02:38:12;117.97;;;9.45;;
83022;SDS011;72838;51.820;4.260;2023-11-19T02:40:39;113.38;;;9.10;;
83022;SDS011;72838;51.820;4.260;2023-11-19T02:43:04;139.55;;;11.65;;
83022;SDS011;72838;51.820;4.260;2023-11-19T02:45:30;128.45;;;10.70;;
83022;SDS011;72838;51.820;4.260;2023-11-19T02:47:56;130.63;;;9.65;;
83022;SDS011;72838;51.820;4.260;2023-11-19T02:50:27;109.88;;;9.18;;
83022;SDS011;72838;51.820;4.260;2023-11-19T02:52:56;124.25;;;10.43;;
83022;SDS011;72838;51.820;4.260;2023-11-19T02:55:21;107.35;;;10.52;;
83022;SDS011;72838;51.820;4.260;2023-11-19T02:57:48;121.03;;;8.80;;
83022;SDS011;72838;51.820;4.260;2023-11-19T03:00:20;113.18;;;10.25;;
83022;SDS011;72838;51.820;4.260;2023-11-19T03:02:56;135.75;;;12.50;;
83022;SDS011;72838;51.820;4.260;2023-11-19T03:05:30;92.00;;;9.52;;
83022;SDS011;72838;51.820;4.260;2023-11-19T03:08:08;108.63;;;10.20;;
83022;SDS011;72838;51.820;4.260;2023-11-19T03:10:33;102.35;;;8.77;;
83022;SDS011;72838;51.820;4.260;2023-11-19T03:12:59;120.05;;;10.30;;
83022;SDS011;72838;51.820;4.260;2023-11-19T03:15:27;107.50;;;10.55;;
83022;SDS011;72838;51.820;4.260;2023-11-19T03:17:52;103.97;;;8.45;;
83022;SDS011;72838;51.820;4.260;2023-11-19T03:20:35;89.85;;;8.68;;
83022;SDS011;72838;51.820;4.260;2023-11-19T03:23:13;115.53;;;8.85;;
83022;SDS011;72838;51.820;4.260;2023-11-19T03:25:45;96.50;;;8.63;;
83022;SDS011;72838;51.820;4.260;2023-11-19T03:28:10;100.32;;;9.80;;
83022;SDS011;72838;51.820;4.260;2023-11-19T03:30:36;101.35;;;8.55;;
83022;SDS011;72838;51.820;4.260;2023-11-19T03:33:03;93.82;;;10.57;;
83022;SDS011;72838;51.820;4.260;2023-11-19T03:35:28;93.65;;;8.57;;
83022;SDS011;72838;51.820;4.260;2023-11-19T03:37:55;99.88;;;8.52;;
83022;SDS011;72838;51.820;4.260;2023-11-19T03:40:21;101.90;;;9.15;;
83022;SDS011;72838;51.820;4.260;2023-11-19T03:42:46;83.60;;;8.82;;
83022;SDS011;72838;51.820;4.260;2023-11-19T03:45:12;105.20;;;9.95;;
83022;SDS011;72838;51.820;4.260;2023-11-19T03:47:38;97.53;;;10.02;;
83022;SDS011;72838;51.820;4.260;2023-11-19T03:50:04;95.72;;;8.30;;
83022;SDS011;72838;51.820;4.260;2023-11-19T03:52:30;95.78;;;9.32;;
83022;SDS011;72838;51.820;4.260;2023-11-19T03:54:55;99.03;;;9.02;;
83022;SDS011;72838;51.820;4.260;2023-11-19T03:57:22;92.80;;;7.97;;
83022;SDS011;72838;51.820;4.260;2023-11-19T03:59:48;99.63;;;8.25;;
83022;SDS011;72838;51.820;4.260;2023-11-19T04:02:15;99.82;;;9.85;;
83022;SDS011;72838;51.820;4.260;2023-11-19T04:04:44;103.13;;;8.82;;
83022;SDS011;72838;51.820;4.260;2023-11-19T04:07:09;101.22;;;9.95;;
83022;SDS011;72838;51.820;4.260;2023-11-19T04:09:35;134.43;;;10.50;;
83022;SDS011;72838;51.820;4.260;2023-11-19T04:12:02;91.82;;;9.85;;
83022;SDS011;72838;51.820;4.260;2023-11-19T04:14:28;112.35;;;9.02;;
83022;SDS011;72838;51.820;4.260;2023-11-19T04:16:54;115.18;;;9.70;;
83022;SDS011;72838;51.820;4.260;2023-11-19T04:19:19;107.78;;;8.80;;
83022;SDS011;72838;51.820;4.260;2023-11-19T04:21:45;114.32;;;8.85;;
83022;SDS011;72838;51.820;4.260;2023-11-19T04:26:41;128.18;;;9.82;;
83022;SDS011;72838;51.820;4.260;2023-11-19T04:29:26;95.75;;;8.77;;
83022;SDS011;72838;51.820;4.260;2023-11-19T04:32:03;108.20;;;7.85;;
83022;SDS011;72838;51.820;4.260;2023-11-19T04:34:30;98.10;;;8.02;;
83022;SDS011;72838;51.820;4.260;2023-11-19T04:36:55;135.02;;;10.55;;
83022;SDS011;72838;51.820;4.260;2023-11-19T04:39:21;119.03;;;10.40;;
83022;SDS011;72838;51.820;4.260;2023-11-19T04:45:29;112.45;;;10.20;;
83022;SDS011;72838;51.820;4.260;2023-11-19T04:47:54;102.40;;;8.60;;
83022;SDS011;72838;51.820;4.260;2023-11-19T04:50:20;112.50;;;9.45;;
83022;SDS011;72838;51.820;4.260;2023-11-19T04:52:57;117.13;;;8.93;;
83022;SDS011;72838;51.820;4.260;2023-11-19T04:55:31;114.97;;;9.60;;
83022;SDS011;72838;51.820;4.260;2023-11-19T04:57:59;117.45;;;9.07;;
83022;SDS011;72838;51.820;4.260;2023-11-19T05:00:28;96.00;;;9.23;;
83022;SDS011;72838;51.820;4.260;2023-11-19T05:02:53;121.63;;;10.32;;
83022;SDS011;72838;51.820;4.260;2023-11-19T05:05:28;119.20;;;8.70;;
83022;SDS011;72838;51.820;4.260;2023-11-19T05:07:57;120.97;;;9.05;;
83022;SDS011;72838;51.820;4.260;2023-11-19T05:10:32;120.28;;;9.32;;
83022;SDS011;72838;51.820;4.260;2023-11-19T05:12:57;100.15;;;9.00;;
83022;SDS011;72838;51.820;4.260;2023-11-19T05:15:28;110.80;;;10.45;;
83022;SDS011;72838;51.820;4.260;2023-11-19T05:17:54;97.47;;;7.72;;
83022;SDS011;72838;51.820;4.260;2023-11-19T05:20:19;102.15;;;9.68;;
83022;SDS011;72838;51.820;4.260;2023-11-19T05:22:45;97.50;;;8.65;;
83022;SDS011;72838;51.820;4.260;2023-11-19T05:25:16;91.80;;;7.28;;
83022;SDS011;72838;51.820;4.260;2023-11-19T05:27:47;92.50;;;7.68;;
83022;SDS011;72838;51.820;4.260;2023-11-19T05:30:15;87.60;;;7.03;;
83022;SDS011;72838;51.820;4.260;2023-11-19T05:32:43;80.68;;;7.63;;
83022;SDS011;72838;51.820;4.260;2023-11-19T05:35:11;83.95;;;8.00;;
83022;SDS011;72838;51.820;4.260;2023-11-19T05:37:37;90.47;;;7.28;;
83022;SDS011;72838;51.820;4.260;2023-11-19T05:40:09;111.05;;;8.55;;
83022;SDS011;72838;51.820;4.260;2023-11-19T05:42:40;109.60;;;9.20;;
83022;SDS011;72838;51.820;4.260;2023-11-19T05:45:06;115.50;;;8.27;;
83022;SDS011;72838;51.820;4.260;2023-11-19T05:47:32;97.85;;;8.73;;
83022;SDS011;72838;51.820;4.260;2023-11-19T05:50:01;113.28;;;9.00;;
83022;SDS011;72838;51.820;4.260;2023-11-19T05:52:26;97.90;;;8.88;;
83022;SDS011;72838;51.820;4.260;2023-11-19T05:54:53;101.65;;;8.50;;
83022;SDS011;72838;51.820;4.260;2023-11-19T05:57:18;110.93;;;8.40;;
83022;SDS011;72838;51.820;4.260;2023-11-19T05:59:49;97.20;;;7.43;;
83022;SDS011;72838;51.820;4.260;2023-11-19T06:02:28;99.32;;;7.93;;
83022;SDS011;72838;51.820;4.260;2023-11-19T06:04:53;93.90;;;8.93;;
83022;SDS011;72838;51.820;4.260;2023-11-19T06:07:18;105.13;;;8.85;;
83022;SDS011;72838;51.820;4.260;2023-11-19T06:09:44;100.05;;;7.72;;
83022;SDS011;72838;51.820;4.260;2023-11-19T06:12:10;117.35;;;9.00;;
83022;SDS011;72838;51.820;4.260;2023-11-19T06:14:35;102.93;;;8.63;;
83022;SDS011;72838;51.820;4.260;2023-11-19T06:17:01;103.93;;;7.32;;
83022;SDS011;72838;51.820;4.260;2023-11-19T06:19:39;81.65;;;8.10;;
83022;SDS011;72838;51.820;4.260;2023-11-19T06:22:04;92.90;;;9.15;;
83022;SDS011;72838;51.820;4.260;2023-11-19T06:24:30;98.85;;;8.13;;
83022;SDS011;72838;51.820;4.260;2023-11-19T06:26:55;98.63;;;8.10;;
83022;SDS011;72838;51.820;4.260;2023-11-19T06:29:21;108.80;;;7.85;;
83022;SDS011;72838;51.820;4.260;2023-11-19T06:31:46;108.78;;;9.63;;
83022;SDS011;72838;51.820;4.260;2023-11-19T06:34:33;124.72;;;11.02;;
83022;SDS011;72838;51.820;4.260;2023-11-19T06:37:05;91.47;;;8.30;;
83022;SDS011;72838;51.820;4.260;2023-11-19T06:39:37;107.63;;;8.63;;
83022;SDS011;72838;51.820;4.260;2023-11-19T06:42:05;93.78;;;7.47;;
83022;SDS011;72838;51.820;4.260;2023-11-19T06:44:31;108.70;;;8.65;;
83022;SDS011;72838;51.820;4.260;2023-11-19T06:46:56;97.45;;;7.90;;
83022;SDS011;72838;51.820;4.260;2023-11-19T06:49:22;121.45;;;9.13;;
83022;SDS011;72838;51.820;4.260;2023-11-19T06:51:48;108.85;;;8.27;;
83022;SDS011;72838;51.820;4.260;2023-11-19T06:54:16;131.13;;;10.68;;
83022;SDS011;72838;51.820;4.260;2023-11-19T06:56:48;121.72;;;9.05;;
83022;SDS011;72838;51.820;4.260;2023-11-19T06:59:14;104.90;;;7.82;;
83022;SDS011;72838;51.820;4.260;2023-11-19T07:01:39;93.47;;;8.25;;
83022;SDS011;72838;51.820;4.260;2023-11-19T07:04:08;101.97;;;8.70;;
83022;SDS011;72838;51.820;4.260;2023-11-19T07:06:36;115.47;;;7.60;;
83022;SDS011;72838;51.820;4.260;2023-11-19T07:09:02;97.97;;;10.07;;
83022;SDS011;72838;51.820;4.260;2023-11-19T07:11:40;101.43;;;9.88;;
83022;SDS011;72838;51.820;4.260;2023-11-19T07:14:09;100.95;;;8.32;;
83022;SDS011;72838;51.820;4.260;2023-11-19T07:16:43;113.90;;;9.70;;
83022;SDS011;72838;51.820;4.260;2023-11-19T07:19:09;98.38;;;9.00;;
83022;SDS011;72838;51.820;4.260;2023-11-19T07:21:35;114.60;;;8.73;;
83022;SDS011;72838;51.820;4.260;2023-11-19T07:24:04;103.50;;;9.05;;
83022;SDS011;72838;51.820;4.260;2023-11-19T07:26:30;104.43;;;8.95;;
83022;SDS011;72838;51.820;4.260;2023-11-19T07:29:05;102.80;;;8.55;;
83022;SDS011;72838;51.820;4.260;2023-11-19T07:31:50;98.82;;;7.55;;
83022;SDS011;72838;51.820;4.260;2023-11-19T07:34:16;92.88;;;7.50;;
83022;SDS011;72838;51.820;4.260;2023-11-19T07:36:41;91.63;;;7.20;;
83022;SDS011;72838;51.820;4.260;2023-11-19T07:39:16;103.80;;;8.13;;
83022;SDS011;72838;51.820;4.260;2023-11-19T07:41:45;87.28;;;7.63;;
83022;SDS011;72838;51.820;4.260;2023-11-19T07:44:11;96.60;;;7.45;;
83022;SDS011;72838;51.820;4.260;2023-11-19T07:46:40;122.50;;;10.77;;
83022;SDS011;72838;51.820;4.260;2023-11-19T07:49:09;86.15;;;8.05;;
83022;SDS011;72838;51.820;4.260;2023-11-19T07:51:35;83.80;;;6.97;;
83022;SDS011;72838;51.820;4.260;2023-11-19T07:54:10;80.53;;;6.78;;
83022;SDS011;72838;51.820;4.260;2023-11-19T07:56:39;87.65;;;7.25;;
83022;SDS011;72838;51.820;4.260;2023-11-19T07:59:05;95.53;;;9.40;;
83022;SDS011;72838;51.820;4.260;2023-11-19T08:01:30;82.82;;;7.57;;
83022;SDS011;72838;51.820;4.260;2023-11-19T08:04:02;104.97;;;9.10;;
83022;SDS011;72838;51.820;4.260;2023-11-19T08:06:30;92.95;;;7.18;;
83022;SDS011;72838;51.820;4.260;2023-11-19T08:08:55;73.93;;;6.85;;
83022;SDS011;72838;51.820;4.260;2023-11-19T08:11:20;102.07;;;8.27;;
83022;SDS011;72838;51.820;4.260;2023-11-19T08:13:46;92.72;;;6.47;;
83022;SDS011;72838;51.820;4.260;2023-11-19T08:16:11;89.57;;;8.40;;
83022;SDS011;72838;51.820;4.260;2023-11-19T08:18:42;80.63;;;7.10;;
83022;SDS011;72838;51.820;4.260;2023-11-19T08:21:13;84.88;;;7.68;;
83022;SDS011;72838;51.820;4.260;2023-11-19T08:23:42;81.47;;;7.90;;
83022;SDS011;72838;51.820;4.260;2023-11-19T08:26:12;87.40;;;6.55;;
83022;SDS011;72838;51.820;4.260;2023-11-19T08:28:39;78.35;;;6.82;;
83022;SDS011;72838;51.820;4.260;2023-11-19T08:31:05;71.90;;;6.97;;
83022;SDS011;72838;51.820;4.260;2023-11-19T08:33:41;80.15;;;8.52;;
83022;SDS011;72838;51.820;4.260;2023-11-19T08:36:07;81.30;;;7.05;;
83022;SDS011;72838;51.820;4.260;2023-11-19T08:38:32;73.43;;;6.53;;
83022;SDS011;72838;51.820;4.260;2023-11-19T08:41:11;80.97;;;6.25;;
83022;SDS011;72838;51.820;4.260;2023-11-19T08:43:36;82.00;;;6.75;;
83022;SDS011;72838;51.820;4.260;2023-11-19T08:46:03;87.28;;;7.30;;
83022;SDS011;72838;51.820;4.260;2023-11-19T08:48:29;103.63;;;9.05;;
83022;SDS011;72838;51.820;4.260;2023-11-19T08:51:03;86.05;;;8.15;;
83022;SDS011;72838;51.820;4.260;2023-11-19T08:53:29;77.78;;;7.72;;
83022;SDS011;72838;51.820;4.260;2023-11-19T08:55:55;100.93;;;8.38;;
83022;SDS011;72838;51.820;4.260;2023-11-19T08:58:20;83.38;;;6.82;;
83022;SDS011;72838;51.820;4.260;2023-11-19T09:00:46;79.30;;;6.85;;
83022;SDS011;72838;51.820;4.260;2023-11-19T09:06:26;76.28;;;6.85;;
83022;SDS011;72838;51.820;4.260;2023-11-19T09:08:52;79.07;;;6.57;;
83022;SDS011;72838;51.820;4.260;2023-11-19T09:11:30;84.40;;;6.78;;
83022;SDS011;72838;51.820;4.260;2023-11-19T09:13:55;87.75;;;7.43;;
83022;SDS011;72838;51.820;4.260;2023-11-19T09:16:22;62.85;;;5.85;;
83022;SDS011;72838;51.820;4.260;2023-11-19T09:24:53;80.50;;;7.25;;
83022;SDS011;72838;51.820;4.260;2023-11-19T09:27:19;91.30;;;7.03;;
83022;SDS011;72838;51.820;4.260;2023-11-19T09:29:57;88.47;;;7.50;;
83022;SDS011;72838;51.820;4.260;2023-11-19T09:32:26;73.03;;;6.75;;
83022;SDS011;72838;51.820;4.260;2023-11-19T09:34:51;81.53;;;6.53;;
83022;SDS011;72838;51.820;4.260;2023-11-19T09:37:17;77.57;;;7.32;;
83022;SDS011;72838;51.820;4.260;2023-11-19T09:39:42;74.72;;;6.78;;
83022;SDS011;72838;51.820;4.260;2023-11-19T09:42:23;78.13;;;7.90;;
83022;SDS011;72838;51.820;4.260;2023-11-19T09:44:49;76.60;;;8.05;;
83022;SDS011;72838;51.820;4.260;2023-11-19T09:47:14;82.15;;;7.55;;
83022;SDS011;72838;51.820;4.260;2023-11-19T09:49:42;87.75;;;7.32;;
83022;SDS011;72838;51.820;4.260;2023-11-19T09:52:17;78.45;;;8.40;;
83022;SDS011;72838;51.820;4.260;2023-11-19T09:54:43;73.35;;;7.72;;
83022;SDS011;72838;51.820;4.260;2023-11-19T09:57:08;79.53;;;8.57;;
83022;SDS011;72838;51.820;4.260;2023-11-19T09:59:36;81.70;;;8.32;;
83022;SDS011;72838;51.820;4.260;2023-11-19T10:02:03;80.57;;;7.30;;
83022;SDS011;72838;51.820;4.260;2023-11-19T10:04:37;88.72;;;6.95;;
83022;SDS011;72838;51.820;4.260;2023-11-19T10:07:07;81.10;;;6.18;;
83022;SDS011;72838;51.820;4.260;2023-11-19T10:09:33;79.72;;;6.95;;
83022;SDS011;72838;51.820;4.260;2023-11-19T10:11:59;76.03;;;7.18;;
83022;SDS011;72838;51.820;4.260;2023-11-19T10:14:33;95.57;;;7.82;;
83022;SDS011;72838;51.820;4.260;2023-11-19T10:17:07;91.50;;;9.50;;
83022;SDS011;72838;51.820;4.260;2023-11-19T10:19:32;105.07;;;8.05;;
83022;SDS011;72838;51.820;4.260;2023-11-19T10:22:07;78.97;;;7.18;;
83022;SDS011;72838;51.820;4.260;2023-11-19T10:24:33;90.90;;;8.02;;
83022;SDS011;72838;51.820;4.260;2023-11-19T10:30:38;86.20;;;7.78;;
83022;SDS011;72838;51.820;4.260;2023-11-19T10:33:20;85.97;;;7.65;;
83022;SDS011;72838;51.820;4.260;2023-11-19T10:35:53;88.57;;;9.30;;
83022;SDS011;72838;51.820;4.260;2023-11-19T10:38:21;75.57;;;6.25;;
83022;SDS011;72838;51.820;4.260;2023-11-19T10:41:05;83.15;;;7.20;;
83022;SDS011;72838;51.820;4.260;2023-11-19T10:43:31;71.80;;;6.13;;
83022;SDS011;72838;51.820;4.260;2023-11-19T10:46:09;78.03;;;7.10;;
83022;SDS011;72838;51.820;4.260;2023-11-19T10:48:35;72.78;;;5.90;;
83022;SDS011;72838;51.820;4.260;2023-11-19T10:51:01;52.88;;;6.28;;
83022;SDS011;72838;51.820;4.260;2023-11-19T10:57:08;58.05;;;6.07;;
83022;SDS011;72838;51.820;4.260;2023-11-19T10:59:37;67.88;;;5.97;;
83022;SDS011;72838;51.820;4.260;2023-11-19T11:02:07;68.53;;;5.95;;
83022;SDS011;72838;51.820;4.260;2023-11-19T11:04:39;59.97;;;6.05;;
83022;SDS011;72838;51.820;4.260;2023-11-19T11:07:07;65.82;;;5.95;;
83022;SDS011;72838;51.820;4.260;2023-11-19T11:09:43;69.32;;;8.35;;
83022;SDS011;72838;51.820;4.260;2023-11-19T11:12:11;66.80;;;5.97;;
83022;SDS011;72838;51.820;4.260;2023-11-19T11:14:38;66.35;;;6.93;;
83022;SDS011;72838;51.820;4.260;2023-11-19T11:17:05;60.35;;;6.43;;
83022;SDS011;72838;51.820;4.260;2023-11-19T11:19:55;74.50;;;6.55;;
83022;SDS011;72838;51.820;4.260;2023-11-19T11:22:20;66.43;;;5.40;;
83022;SDS011;72838;51.820;4.260;2023-11-19T11:30:33;76.03;;;6.93;;
83022;SDS011;72838;51.820;4.260;2023-11-19T11:35:54;64.78;;;7.05;;
83022;SDS011;72838;51.820;4.260;2023-11-19T11:38:30;91.05;;;8.50;;
83022;SDS011;72838;51.820;4.260;2023-11-19T11:41:20;71.20;;;6.70;;
83022;SDS011;72838;51.820;4.260;2023-11-19T11:44:00;73.30;;;6.95;;
83022;SDS011;72838;51.820;4.260;2023-11-19T12:02:05;66.20;;;6.35;;
83022;SDS011;72838;51.820;4.260;2023-11-19T12:04:34;79.88;;;6.35;;
83022;SDS011;72838;51.820;4.260;2023-11-19T12:09:46;91.03;;;7.20;;
83022;SDS011;72838;51.820;4.260;2023-11-19T12:18:11;62.42;;;6.18;;
83022;SDS011;72838;51.820;4.260;2023-11-19T12:20:44;78.43;;;6.63;;
83022;SDS011;72838;51.820;4.260;2023-11-19T12:23:13;75.70;;;7.10;;
83022;SDS011;72838;51.820;4.260;2023-11-19T12:25:46;70.60;;;7.45;;
83022;SDS011;72838;51.820;4.260;2023-11-19T12:28:12;82.25;;;9.30;;
83022;SDS011;72838;51.820;4.260;2023-11-19T12:30:48;86.00;;;6.78;;
83022;SDS011;72838;51.820;4.260;2023-11-19T12:33:14;67.70;;;5.88;;
83022;SDS011;72838;51.820;4.260;2023-11-19T12:38:21;72.05;;;5.43;;
83022;SDS011;72838;51.820;4.260;2023-11-19T12:41:05;53.70;;;6.07;;
83022;SDS011;72838;51.820;4.260;2023-11-19T12:43:32;58.65;;;5.68;;
83022;SDS011;72838;51.820;4.260;2023-11-19T12:46:01;47.92;;;5.30;;
83022;SDS011;72838;51.820;4.260;2023-11-19T12:48:26;62.22;;;6.03;;
83022;SDS011;72838;51.820;4.260;2023-11-19T12:50:58;53.78;;;5.50;;
83022;SDS011;72838;51.820;4.260;2023-11-19T12:56:14;68.95;;;6.93;;
83022;SDS011;72838;51.820;4.260;2023-11-19T12:58:46;61.25;;;6.80;;
83022;SDS011;72838;51.820;4.260;2023-11-19T13:01:15;76.43;;;6.80;;
83022;SDS011;72838;51.820;4.260;2023-11-19T13:03:42;62.13;;;5.85;;
83022;SDS011;72838;51.820;4.260;2023-11-19T13:06:17;63.42;;;7.63;;
83022;SDS011;72838;51.820;4.260;2023-11-19T13:08:46;60.28;;;6.20;;
83022;SDS011;72838;51.820;4.260;2023-11-19T13:11:32;74.50;;;6.68;;
83022;SDS011;72838;51.820;4.260;2023-11-19T13:14:02;73.68;;;6.57;;
83022;SDS011;72838;51.820;4.260;2023-11-19T13:16:36;81.97;;;7.13;;
83022;SDS011;72838;51.820;4.260;2023-11-19T13:19:02;72.35;;;6.90;;
83022;SDS011;72838;51.820;4.260;2023-11-19T13:21:29;61.00;;;5.75;;
83022;SDS011;72838;51.820;4.260;2023-11-19T13:23:57;61.88;;;5.60;;
83022;SDS011;72838;51.820;4.260;2023-11-19T13:26:23;70.00;;;5.50;;
83022;SDS011;72838;51.820;4.260;2023-11-19T13:28:48;72.85;;;7.68;;
83022;SDS011;72838;51.820;4.260;2023-11-19T13:31:14;67.57;;;6.30;;
83022;SDS011;72838;51.820;4.260;2023-11-19T13:33:45;62.25;;;6.47;;
83022;SDS011;72838;51.820;4.260;2023-11-19T13:36:11;80.80;;;7.55;;
83022;SDS011;72838;51.820;4.260;2023-11-19T13:41:37;55.88;;;5.88;;
83022;SDS011;72838;51.820;4.260;2023-11-19T13:44:03;69.90;;;6.78;;
83022;SDS011;72838;51.820;4.260;2023-11-19T13:46:28;76.00;;;6.50;;
83022;SDS011;72838;51.820;4.260;2023-11-19T13:48:54;74.55;;;6.75;;
83022;SDS011;72838;51.820;4.260;2023-11-19T13:51:23;87.28;;;7.60;;
83022;SDS011;72838;51.820;4.260;2023-11-19T13:53:51;59.70;;;5.57;;
83022;SDS011;72838;51.820;4.260;2023-11-19T14:06:05;70.60;;;7.47;;
83022;SDS011;72838;51.820;4.260;2023-11-19T14:08:33;87.15;;;7.78;;
83022;SDS011;72838;51.820;4.260;2023-11-19T14:11:10;65.82;;;5.72;;
83022;SDS011;72838;51.820;4.260;2023-11-19T14:13:48;66.95;;;6.30;;
83022;SDS011;72838;51.820;4.260;2023-11-19T14:16:15;67.30;;;6.63;;
83022;SDS011;72838;51.820;4.260;2023-11-19T14:18:41;62.63;;;6.55;;
83022;SDS011;72838;51.820;4.260;2023-11-19T14:21:06;59.97;;;5.63;;
83022;SDS011;72838;51.820;4.260;2023-11-19T14:23:31;65.07;;;5.53;;
83022;SDS011;72838;51.820;4.260;2023-11-19T14:25:57;62.97;;;6.22;;
83022;SDS011;72838;51.820;4.260;2023-11-19T14:28:22;68.65;;;5.88;;
83022;SDS011;72838;51.820;4.260;2023-11-19T14:30:47;67.75;;;8.23;;
83022;SDS011;72838;51.820;4.260;2023-11-19T14:33:18;69.38;;;6.38;;
83022;SDS011;72838;51.820;4.260;2023-11-19T14:35:44;64.85;;;6.40;;
83022;SDS011;72838;51.820;4.260;2023-11-19T14:38:09;67.10;;;6.50;;
83022;SDS011;72838;51.820;4.260;2023-11-19T14:40:34;64.88;;;5.70;;
83022;SDS011;72838;51.820;4.260;2023-11-19T14:43:00;61.45;;;6.97;;
83022;SDS011;72838;51.820;4.260;2023-11-19T14:45:25;75.13;;;7.07;;
83022;SDS011;72838;51.820;4.260;2023-11-19T14:47:51;61.75;;;6.45;;
83022;SDS011;72838;51.820;4.260;2023-11-19T14:50:23;62.33;;;7.30;;
83022;SDS011;72838;51.820;4.260;2023-11-19T14:52:49;46.70;;;4.97;;
83022;SDS011;72838;51.820;4.260;2023-11-19T14:55:14;52.58;;;5.75;;
83022;SDS011;72838;51.820;4.260;2023-11-19T14:57:48;61.45;;;5.75;;
83022;SDS011;72838;51.820;4.260;2023-11-19T15:00:15;63.28;;;6.22;;
83022;SDS011;72838;51.820;4.260;2023-11-19T15:02:44;57.45;;;6.75;;
83022;SDS011;72838;51.820;4.260;2023-11-19T15:05:09;56.85;;;5.00;;
83022;SDS011;72838;51.820;4.260;2023-11-19T15:07:40;52.78;;;6.32;;
83022;SDS011;72838;51.820;4.260;2023-11-19T15:10:06;70.45;;;7.32;;
83022;SDS011;72838;51.820;4.260;2023-11-19T15:12:35;50.47;;;6.15;;
83022;SDS011;72838;51.820;4.260;2023-11-19T15:15:08;62.83;;;6.03;;
83022;SDS011;72838;51.820;4.260;2023-11-19T15:17:40;58.92;;;5.97;;
83022;SDS011;72838;51.820;4.260;2023-11-19T15:20:05;63.63;;;5.57;;
83022;SDS011;72838;51.820;4.260;2023-11-19T15:22:33;63.40;;;6.13;;
83022;SDS011;72838;51.820;4.260;2023-11-19T15:24:58;75.50;;;6.07;;
83022;SDS011;72838;51.820;4.260;2023-11-19T15:27:35;67.18;;;6.45;;
83022;SDS011;72838;51.820;4.260;2023-11-19T15:30:10;68.78;;;7.32;;
83022;SDS011;72838;51.820;4.260;2023-11-19T15:32:40;76.30;;;9.93;;
83022;SDS011;72838;51.820;4.260;2023-11-19T15:35:07;66.82;;;8.02;;
83022;SDS011;72838;51.820;4.260;2023-11-19T15:37:42;74.50;;;6.07;;
83022;SDS011;72838;51.820;4.260;2023-11-19T15:40:14;63.85;;;6.22;;
83022;SDS011;72838;51.820;4.260;2023-11-19T15:42:40;50.05;;;5.30;;
83022;SDS011;72838;51.820;4.260;2023-11-19T15:45:11;50.80;;;5.68;;
83022;SDS011;72838;51.820;4.260;2023-11-19T15:47:40;55.90;;;5.75;;
83022;SDS011;72838;51.820;4.260;2023-11-19T15:50:13;53.17;;;4.35;;
83022;SDS011;72838;51.820;4.260;2023-11-19T15:52:39;45.45;;;5.22;;
83022;SDS011;72838;51.820;4.260;2023-11-19T15:55:04;47.85;;;4.63;;
83022;SDS011;72838;51.820;4.260;2023-11-19T15:57:30;54.17;;;5.68;;
83022;SDS011;72838;51.820;4.260;2023-11-19T15:59:55;62.75;;;6.55;;